createdAt,value
2019-05-14T00:00:17.560Z,78.38
2019-05-14T00:02:44.253Z,78.55
2019-05-14T00:05:12.190Z,78.16
2019-05-14T00:07:41.350Z,78.10
2019-05-14T00:10:09.050Z,78.92
2019-05-14T00:12:35.825Z,79.19
2019-05-14T00:15:02.569Z,79.11
2019-05-14T00:17:31.829Z,79.30
2019-05-14T00:20:07.439Z,79.14
2019-05-14T00:22:28.708Z,79.24
2019-05-14T00:24:55.490Z,78.88
2019-05-14T00:27:22.295Z,79.26
2019-05-14T00:29:49.028Z,79.41
2019-05-14T00:32:15.693Z,79.55
2019-05-14T00:34:42.693Z,79.37
2019-05-14T00:37:11.480Z,79.90
2019-05-14T00:39:38.053Z,79.81
2019-05-14T00:42:05.087Z,79.84
2019-05-14T00:44:32.405Z,80.08
2019-05-14T00:46:59.266Z,80.08
2019-05-14T00:49:25.936Z,79.93
2019-05-14T00:51:52.561Z,80.08
2019-05-14T00:54:21.419Z,79.84
2019-05-14T00:56:47.723Z,79.99
2019-05-14T00:59:14.482Z,79.36
2019-05-14T01:01:42.475Z,79.71
2019-05-14T01:04:11.632Z,80.07
2019-05-14T01:06:38.022Z,80.28
2019-05-14T01:09:04.956Z,79.44
2019-05-14T01:11:31.664Z,80.05
2019-05-14T01:13:58.249Z,80.54
2019-05-14T01:16:27.866Z,80.49
2019-05-14T01:18:54.573Z,80.64
2019-05-14T01:21:21.931Z,80.47
2019-05-14T01:23:48.743Z,80.73
2019-05-14T01:26:15.526Z,80.98
2019-05-14T01:28:42.458Z,80.63
2019-05-14T01:31:11.181Z,80.79
2019-05-14T01:33:37.743Z,80.72
2019-05-14T01:36:04.522Z,80.71
2019-05-14T01:38:31.642Z,80.67
2019-05-14T01:40:58.427Z,80.69
2019-05-14T01:43:25.039Z,80.59
2019-05-14T01:45:52.419Z,80.66
2019-05-14T01:48:19.262Z,80.93
2019-05-14T01:50:45.907Z,80.94
2019-05-14T01:53:12.498Z,80.89
2019-05-14T01:55:41.304Z,80.80
2019-05-14T01:58:07.566Z,81.28
2019-05-14T02:00:34.156Z,81.31
2019-05-14T02:03:01.760Z,81.25
2019-05-14T02:05:30.943Z,81.45
2019-05-14T02:07:57.373Z,81.66
2019-05-14T02:10:24.067Z,81.81
2019-05-14T02:12:51.583Z,81.92
2019-05-14T02:15:18.673Z,81.53
2019-05-14T02:17:45.353Z,81.96
2019-05-14T02:20:12.700Z,81.75
2019-05-14T02:22:41.719Z,82.02
2019-05-14T02:25:08.436Z,81.82
2019-05-14T02:27:35.178Z,82.11
2019-05-14T02:30:02.336Z,82.00
2019-05-14T02:32:30.276Z,82.21
2019-05-14T02:34:58.928Z,82.16
2019-05-14T02:37:25.544Z,81.70
2019-05-14T02:39:52.396Z,82.05
2019-05-14T02:42:19.830Z,81.87
2019-05-14T02:44:48.985Z,82.13
2019-05-14T02:47:15.679Z,82.26
2019-05-14T02:49:42.444Z,82.41
2019-05-14T02:52:10.183Z,82.49
2019-05-14T02:54:40.228Z,82.50
2019-05-14T02:57:09.808Z,82.44
2019-05-14T02:59:34.351Z,81.56
2019-05-14T03:02:01.059Z,81.81
2019-05-14T03:04:30.043Z,81.30
2019-05-14T03:06:59.058Z,82.41
2019-05-14T03:09:29.363Z,82.90
2019-05-14T03:11:54.687Z,83.02
2019-05-14T03:14:21.456Z,82.88
2019-05-14T03:16:49.761Z,82.75
2019-05-14T03:19:19.561Z,81.78
2019-05-14T03:21:45.426Z,81.88
2019-05-14T03:24:12.125Z,81.57
2019-05-14T03:26:39.870Z,83.03
2019-05-14T03:29:09.883Z,83.04
2019-05-14T03:31:35.852Z,83.12
2019-05-14T03:34:03.935Z,83.52
2019-05-14T03:36:34.593Z,83.22
2019-05-14T03:38:59.718Z,83.55
2019-05-14T03:41:26.409Z,83.81
2019-05-14T03:43:53.493Z,83.51
2019-05-14T03:46:20.699Z,83.04
2019-05-14T03:48:49.311Z,83.13
2019-05-14T03:51:20.348Z,83.17
2019-05-14T03:53:56.949Z,83.19
2019-05-14T03:56:18.997Z,83.27
2019-05-14T03:58:44.929Z,83.60
2019-05-14T04:01:12.082Z,83.67
2019-05-14T04:03:39.832Z,83.74
2019-05-14T04:06:10.025Z,83.73
2019-05-14T04:08:39.346Z,83.65
2019-05-14T04:11:09.578Z,83.28
2019-05-14T04:13:39.793Z,83.07
2019-05-14T04:16:09.180Z,82.77
2019-05-14T04:18:35.134Z,82.50
2019-05-14T04:21:02.871Z,82.61
2019-05-14T04:23:29.653Z,82.11
2019-05-14T04:26:00.237Z,82.03
2019-05-14T04:28:25.649Z,81.46
2019-05-14T04:30:52.767Z,81.39
2019-05-14T04:33:21.975Z,81.10
2019-05-14T04:35:49.162Z,81.00
2019-05-14T04:38:20.135Z,80.36
2019-05-14T04:40:45.753Z,80.65
2019-05-14T04:43:14.269Z,80.25
2019-05-14T04:45:41.697Z,80.24
2019-05-14T04:48:28.028Z,79.69
2019-05-14T04:50:41.017Z,78.40
2019-05-14T04:53:09.078Z,79.12
2019-05-14T04:55:36.372Z,78.02
2019-05-14T04:58:03.214Z,77.65
2019-05-14T05:00:30.728Z,76.74
2019-05-14T05:03:00.040Z,75.12
2019-05-14T05:05:26.377Z,72.95
2019-05-14T05:07:53.019Z,71.18
2019-05-14T05:10:19.920Z,69.75
2019-05-14T05:12:49.235Z,67.95
2019-05-14T05:15:15.264Z,66.79
2019-05-14T05:17:47.994Z,65.91
2019-05-14T05:20:10.810Z,66.50
2019-05-14T05:22:39.358Z,64.66
2019-05-14T05:25:08.370Z,63.66
2019-05-14T05:27:35.359Z,63.60
2019-05-14T05:30:05.339Z,62.31
2019-05-14T05:32:32.043Z,62.35
2019-05-14T05:35:00.629Z,62.88
2019-05-14T05:37:29.425Z,63.26
2019-05-14T05:39:58.244Z,64.36
2019-05-14T05:42:29.460Z,64.76
2019-05-14T05:44:56.007Z,65.02
2019-05-14T05:47:23.664Z,64.03
2019-05-14T05:49:50.314Z,64.42
2019-05-14T05:52:19.119Z,64.44
2019-05-14T05:54:45.799Z,63.28
2019-05-14T05:57:12.796Z,63.92
2019-05-14T05:59:39.584Z,63.45
2019-05-14T06:02:09.363Z,61.45
2019-05-14T06:04:39.393Z,61.99
2019-05-14T06:07:09.775Z,62.44
2019-05-14T06:09:38.183Z,60.65
2019-05-14T06:12:04.968Z,59.88
2019-05-14T06:14:33.157Z,60.51
2019-05-14T06:17:00.424Z,60.06
2019-05-14T06:19:28.996Z,57.63
2019-05-14T06:21:59.665Z,59.46
2019-05-14T06:24:28.596Z,60.81
2019-05-14T06:26:58.566Z,59.36
2019-05-14T06:29:28.785Z,59.36
2019-05-14T06:31:58.501Z,56.80
2019-05-14T06:34:28.907Z,57.77
2019-05-14T06:36:55.401Z,56.61
2019-05-14T06:39:22.074Z,53.70
2019-05-14T06:41:50.705Z,52.55
2019-05-14T06:44:18.745Z,50.05
2019-05-14T06:46:45.775Z,51.01
2019-05-14T06:49:12.410Z,53.23
2019-05-14T06:51:39.548Z,52.58
2019-05-14T06:54:06.368Z,52.12
2019-05-14T06:56:33.256Z,50.04
2019-05-14T06:58:59.961Z,51.38
2019-05-14T07:01:28.973Z,49.41
2019-05-14T07:03:55.160Z,49.28
2019-05-14T07:06:21.823Z,44.69
2019-05-14T07:08:52.107Z,47.73
2019-05-14T07:11:19.164Z,45.06
2019-05-14T07:13:45.770Z,48.48
2019-05-14T07:16:12.373Z,47.61
2019-05-14T07:18:50.769Z,44.85
2019-05-14T07:21:08.204Z,45.12
2019-05-14T07:23:38.649Z,42.63
2019-05-14T07:26:05.539Z,42.56
2019-05-14T07:28:34.171Z,43.05
2019-05-14T07:31:00.862Z,44.76
2019-05-14T07:33:29.255Z,39.63
2019-05-14T07:35:56.142Z,40.80
2019-05-14T07:38:22.822Z,42.64
2019-05-14T07:40:49.687Z,41.86
2019-05-14T07:43:18.745Z,39.39
2019-05-14T07:45:44.988Z,42.31
2019-05-14T07:48:11.877Z,38.84
2019-05-14T07:50:39.732Z,38.75
2019-05-14T07:53:08.998Z,39.45
2019-05-14T07:55:38.697Z,37.88
2019-05-14T07:58:05.398Z,38.91
2019-05-14T08:00:34.880Z,41.87
2019-05-14T08:03:03.053Z,38.25
2019-05-14T08:05:29.832Z,40.43
2019-05-14T08:07:58.503Z,34.14
2019-05-14T08:10:26.207Z,35.88
2019-05-14T08:12:52.835Z,39.83
2019-05-14T08:15:22.385Z,35.24
2019-05-14T08:17:48.380Z,35.27
2019-05-14T08:20:18.311Z,34.90
2019-05-14T08:22:45.230Z,35.38
2019-05-14T08:25:11.960Z,39.48
2019-05-14T08:27:39.046Z,40.83
2019-05-14T08:30:08.203Z,34.90
2019-05-14T08:32:35.004Z,35.22
2019-05-14T08:35:01.935Z,30.78
2019-05-14T08:37:28.838Z,32.17
2019-05-14T08:39:55.432Z,37.18
2019-05-14T08:42:22.030Z,30.75
2019-05-14T08:44:51.358Z,34.08
2019-05-14T08:47:18.409Z,32.32
2019-05-14T08:49:47.611Z,35.02
2019-05-14T08:52:16.061Z,33.36
2019-05-14T08:54:42.058Z,28.54
2019-05-14T08:57:09.973Z,29.79
2019-05-14T08:59:39.537Z,28.62
2019-05-14T09:02:06.723Z,27.26
2019-05-14T09:04:33.885Z,31.22
2019-05-14T09:07:00.709Z,28.43
2019-05-14T09:09:29.082Z,31.04
2019-05-14T09:11:56.373Z,28.85
2019-05-14T09:14:23.009Z,29.34
2019-05-14T09:16:51.328Z,29.16
2019-05-14T09:19:19.254Z,29.76
2019-05-14T09:21:46.267Z,29.25
2019-05-14T09:24:13.028Z,30.08
2019-05-14T09:26:39.883Z,26.42
2019-05-14T09:29:19.421Z,30.03
2019-05-14T09:31:35.097Z,29.19
2019-05-14T09:34:01.771Z,28.50
2019-05-14T09:36:29.106Z,27.99
2019-05-14T09:38:58.216Z,25.54
2019-05-14T09:41:27.595Z,29.62
2019-05-14T09:43:54.707Z,25.90
2019-05-14T09:46:21.508Z,24.99
2019-05-14T09:48:48.925Z,32.99
2019-05-14T09:51:15.616Z,32.26
2019-05-14T09:53:42.249Z,31.73
2019-05-14T09:56:09.341Z,29.48
2019-05-14T09:58:38.780Z,35.86
2019-05-14T10:01:08.965Z,32.26
2019-05-14T10:03:35.921Z,32.14
2019-05-14T10:06:05.669Z,33.29
2019-05-14T10:08:32.262Z,36.09
2019-05-14T10:11:00.210Z,30.96
2019-05-14T10:13:28.237Z,26.21
2019-05-14T10:15:55.260Z,25.58
2019-05-14T10:18:22.383Z,23.11
2019-05-14T10:20:49.624Z,23.59
2019-05-14T10:23:18.686Z,22.40
2019-05-14T10:25:45.056Z,19.57
2019-05-14T10:28:11.787Z,18.96
2019-05-14T10:30:38.519Z,19.23
2019-05-14T10:33:10.902Z,21.81
2019-05-14T10:35:34.484Z,21.46
2019-05-14T10:38:01.244Z,20.85
2019-05-14T10:40:29.222Z,21.62
2019-05-14T10:42:56.006Z,24.58
2019-05-14T10:45:22.727Z,26.34
2019-05-14T10:47:51.646Z,24.22
2019-05-14T10:50:19.946Z,26.04
2019-05-14T10:52:48.888Z,27.96
2019-05-14T10:55:15.311Z,30.02
2019-05-14T10:57:45.102Z,24.64
2019-05-14T11:00:12.313Z,25.67
2019-05-14T11:02:39.024Z,31.72
2019-05-14T11:05:06.939Z,25.78
2019-05-14T11:07:33.917Z,27.90
2019-05-14T11:10:00.537Z,31.05
2019-05-14T11:12:29.679Z,29.65
2019-05-14T11:14:56.232Z,27.86
2019-05-14T11:17:23.641Z,30.99
2019-05-14T11:19:50.249Z,29.79
2019-05-14T11:22:19.023Z,22.51
2019-05-14T11:24:45.684Z,22.83
2019-05-14T11:27:12.669Z,19.71
2019-05-14T11:29:39.310Z,19.90
2019-05-14T11:32:05.992Z,21.36
2019-05-14T11:34:32.597Z,19.66
2019-05-14T11:37:00.190Z,20.48
2019-05-14T11:39:29.957Z,19.55
2019-05-14T11:41:59.327Z,19.14
2019-05-14T11:44:28.809Z,22.93
2019-05-14T11:46:58.121Z,22.83
2019-05-14T11:49:24.193Z,21.82
2019-05-14T11:52:04.078Z,21.61
2019-05-14T11:54:23.122Z,23.15
2019-05-14T11:56:49.937Z,22.66
2019-05-14T11:59:18.778Z,23.75
2019-05-14T12:01:45.029Z,26.66
2019-05-14T12:04:12.048Z,23.15
2019-05-14T12:06:39.210Z,22.69
2019-05-14T12:09:06.185Z,20.73
2019-05-14T12:11:32.896Z,22.10
2019-05-14T12:14:00.056Z,22.15
2019-05-14T12:16:29.127Z,21.56
2019-05-14T12:18:55.154Z,19.79
2019-05-14T12:21:22.079Z,19.83
2019-05-14T12:23:48.725Z,21.94
2019-05-14T12:26:15.556Z,23.44
2019-05-14T12:28:42.227Z,22.15
2019-05-14T12:31:09.456Z,21.74
2019-05-14T12:33:39.287Z,20.81
2019-05-14T12:36:05.138Z,19.41
2019-05-14T12:38:31.788Z,20.52
2019-05-14T12:41:01.755Z,20.40
2019-05-14T12:43:28.629Z,23.39
2019-05-14T12:45:55.262Z,23.71
2019-05-14T12:48:21.851Z,25.63
2019-05-14T12:50:49.016Z,26.81
2019-05-14T12:53:15.799Z,24.37
2019-05-14T12:55:42.490Z,25.13
2019-05-14T12:58:09.104Z,20.88
2019-05-14T13:00:35.899Z,21.11
2019-05-14T13:03:02.717Z,23.61
2019-05-14T13:05:29.611Z,28.12
2019-05-14T13:07:58.006Z,26.29
2019-05-14T13:10:24.785Z,24.99
2019-05-14T13:12:51.542Z,25.43
2019-05-14T13:15:20.206Z,26.93
2019-05-14T13:17:48.433Z,25.73
2019-05-14T13:20:15.629Z,24.44
2019-05-14T13:22:46.354Z,26.65
2019-05-14T13:25:13.085Z,28.36
2019-05-14T13:27:39.736Z,28.25
2019-05-14T13:30:09.089Z,28.14
2019-05-14T13:32:35.452Z,29.35
2019-05-14T13:35:02.550Z,30.84
2019-05-14T13:37:29.173Z,28.98
2019-05-14T13:39:55.763Z,29.17
2019-05-14T13:42:23.141Z,30.27
2019-05-14T13:44:50.938Z,28.06
2019-05-14T13:47:18.262Z,27.85
2019-05-14T13:49:45.294Z,29.83
2019-05-14T13:52:12.136Z,28.78
2019-05-14T13:54:39.491Z,29.51
2019-05-14T13:57:10.029Z,31.55
2019-05-14T13:59:43.913Z,27.63
2019-05-14T14:02:04.904Z,29.33
2019-05-14T14:04:31.713Z,29.80
2019-05-14T14:06:59.436Z,30.53
2019-05-14T14:09:28.404Z,30.91
2019-05-14T14:11:54.635Z,31.52
2019-05-14T14:14:21.671Z,31.88
2019-05-14T14:16:49.037Z,30.68
2019-05-14T14:19:15.817Z,31.34
2019-05-14T14:21:43.254Z,29.48
2019-05-14T14:24:11.477Z,28.49
2019-05-14T14:26:39.606Z,29.17
2019-05-14T14:29:09.008Z,27.96
2019-05-14T14:31:35.039Z,31.23
2019-05-14T14:34:01.802Z,29.87
2019-05-14T14:36:29.838Z,28.00
2019-05-14T14:38:58.870Z,28.19
2019-05-14T14:41:28.252Z,29.81
2019-05-14T14:43:55.363Z,28.90
2019-05-14T14:46:22.207Z,29.27
2019-05-14T14:48:49.665Z,29.35
2019-05-14T14:51:18.948Z,28.35
2019-05-14T14:53:54.848Z,28.23
2019-05-14T14:56:14.728Z,28.39
2019-05-14T14:58:41.456Z,29.20
2019-05-14T15:01:08.790Z,29.02
2019-05-14T15:03:38.239Z,29.34
2019-05-14T15:06:09.707Z,29.82
2019-05-14T15:08:38.861Z,30.36
2019-05-14T15:11:04.906Z,29.18
2019-05-14T15:13:31.668Z,28.12
2019-05-14T15:16:01.070Z,29.69
2019-05-14T15:18:28.851Z,30.60
2019-05-14T15:20:58.671Z,29.84
2019-05-14T15:23:24.531Z,27.97
2019-05-14T15:25:52.255Z,27.85
2019-05-14T15:28:19.568Z,30.13
2019-05-14T15:30:49.667Z,29.54
2019-05-14T15:33:15.546Z,29.55
2019-05-14T15:35:42.199Z,30.13
2019-05-14T15:38:11.359Z,30.58
2019-05-14T15:40:40.018Z,29.18
2019-05-14T15:43:06.417Z,28.98
2019-05-14T15:45:34.229Z,29.86
2019-05-14T15:48:03.948Z,29.94
2019-05-14T15:50:32.835Z,31.02
2019-05-14T15:52:58.719Z,30.42
2019-05-14T15:55:25.316Z,30.39
2019-05-14T15:57:52.024Z,30.82
2019-05-14T16:00:19.915Z,32.14
2019-05-14T16:02:46.505Z,31.29
2019-05-14T16:05:13.436Z,32.07
2019-05-14T16:07:40.569Z,32.27
2019-05-14T16:10:08.650Z,32.21
2019-05-14T16:12:39.463Z,31.81
2019-05-14T16:15:08.670Z,31.73
2019-05-14T16:17:35.238Z,32.42
2019-05-14T16:20:01.899Z,32.25
2019-05-14T16:22:29.289Z,32.62
2019-05-14T16:25:00.100Z,33.37
2019-05-14T16:27:25.049Z,32.66
2019-05-14T16:29:51.962Z,31.93
2019-05-14T16:32:18.601Z,31.99
2019-05-14T16:34:45.341Z,32.64
2019-05-14T16:37:12.426Z,34.05
2019-05-14T16:39:39.266Z,33.41
2019-05-14T16:42:05.946Z,33.22
2019-05-14T16:44:32.866Z,34.58
2019-05-14T16:46:59.465Z,35.01
2019-05-14T16:49:29.403Z,33.63
2019-05-14T16:51:55.100Z,34.75
2019-05-14T16:54:23.628Z,34.23
2019-05-14T16:56:50.468Z,33.51
2019-05-14T16:59:18.586Z,35.25
2019-05-14T17:01:49.146Z,33.97
2019-05-14T17:04:15.637Z,34.43
2019-05-14T17:06:42.396Z,34.84
2019-05-14T17:09:09.370Z,34.34
2019-05-14T17:11:35.937Z,34.77
2019-05-14T17:14:02.889Z,34.33
2019-05-14T17:16:29.650Z,35.43
2019-05-14T17:18:58.954Z,34.83
2019-05-14T17:21:25.234Z,33.41
2019-05-14T17:23:52.114Z,34.78
2019-05-14T17:26:18.748Z,34.75
2019-05-14T17:28:45.442Z,33.34
2019-05-14T17:31:12.039Z,33.76
2019-05-14T17:33:39.471Z,33.16
2019-05-14T17:36:09.234Z,34.45
2019-05-14T17:38:35.332Z,34.84
2019-05-14T17:41:01.949Z,33.96
2019-05-14T17:43:28.877Z,34.66
2019-05-14T17:45:55.576Z,35.85
2019-05-14T17:48:22.463Z,34.92
2019-05-14T17:50:49.347Z,35.00
2019-05-14T17:53:18.215Z,36.93
2019-05-14T17:55:50.064Z,36.42
2019-05-14T17:58:13.619Z,35.83
2019-05-14T18:00:40.403Z,36.54
2019-05-14T18:03:08.740Z,36.98
2019-05-14T18:05:35.497Z,36.66
2019-05-14T18:08:02.346Z,36.89
2019-05-14T18:10:28.997Z,37.36
2019-05-14T18:12:55.693Z,37.00
2019-05-14T18:15:22.803Z,37.91
2019-05-14T18:17:49.666Z,37.83
2019-05-14T18:20:16.570Z,37.32
2019-05-14T18:22:43.800Z,38.63
2019-05-14T18:25:10.563Z,38.93
2019-05-14T18:27:39.226Z,38.75
2019-05-14T18:30:09.264Z,38.27
2019-05-14T18:32:35.193Z,39.84
2019-05-14T18:35:01.839Z,39.37
2019-05-14T18:37:29.065Z,40.28
2019-05-14T18:39:55.934Z,40.46
2019-05-14T18:42:22.539Z,40.22
2019-05-14T18:44:49.823Z,41.28
2019-05-14T18:47:19.391Z,40.70
2019-05-14T18:49:45.205Z,41.09
2019-05-14T18:52:11.926Z,41.13
2019-05-14T18:54:38.835Z,41.28
2019-05-14T18:57:05.640Z,42.33
2019-05-14T18:59:32.299Z,42.11
2019-05-14T19:01:59.534Z,42.03
2019-05-14T19:04:27.972Z,42.40
2019-05-14T19:06:54.741Z,42.22
2019-05-14T19:09:21.370Z,41.93
2019-05-14T19:11:48.361Z,42.56
2019-05-14T19:14:15.205Z,43.61
2019-05-14T19:16:41.813Z,44.23
2019-05-14T19:19:08.428Z,44.14
2019-05-14T19:21:35.090Z,44.25
2019-05-14T19:24:01.781Z,44.42
2019-05-14T19:26:36.569Z,42.73
2019-05-14T19:28:58.270Z,44.45
2019-05-14T19:31:24.918Z,44.71
2019-05-14T19:33:53.753Z,45.24
2019-05-14T19:36:20.478Z,44.38
2019-05-14T19:38:48.126Z,45.11
2019-05-14T19:41:14.910Z,46.35
2019-05-14T19:43:41.716Z,46.23
2019-05-14T19:46:16.387Z,46.24
2019-05-14T19:48:43.986Z,46.24
2019-05-14T19:51:10.651Z,47.38
2019-05-14T19:53:39.183Z,47.38
2019-05-14T19:56:06.238Z,47.10
2019-05-14T19:58:32.863Z,46.72
2019-05-14T20:01:00.040Z,47.78
2019-05-14T20:03:29.066Z,46.87
2019-05-14T20:05:55.672Z,47.84
2019-05-14T20:08:22.998Z,47.84
2019-05-14T20:10:49.821Z,47.97
2019-05-14T20:13:19.099Z,48.33
2019-05-14T20:15:45.176Z,48.05
2019-05-14T20:18:11.826Z,47.21
2019-05-14T20:20:38.461Z,47.80
2019-05-14T20:23:06.192Z,47.86
2019-05-14T20:25:33.316Z,46.82
2019-05-14T20:28:00.803Z,46.82
2019-05-14T20:30:29.498Z,47.61
2019-05-14T20:32:59.067Z,47.61
2019-05-14T20:35:31.545Z,47.87
2019-05-14T20:37:54.846Z,46.95
2019-05-14T20:40:23.441Z,48.50
2019-05-14T20:42:50.068Z,48.61
2019-05-14T20:45:19.102Z,47.46
2019-05-14T20:47:48.001Z,47.01
2019-05-14T20:50:14.508Z,47.19
2019-05-14T20:52:41.207Z,47.60
2019-05-14T20:55:09.553Z,48.65
2019-05-14T20:57:38.239Z,48.51
2019-05-14T21:00:05.610Z,48.51
2019-05-14T21:02:32.690Z,47.25
2019-05-14T21:05:04.521Z,47.85
2019-05-14T21:07:29.006Z,49.05
2019-05-14T21:09:56.801Z,49.05
2019-05-14T21:12:24.013Z,49.74
2019-05-14T21:14:50.719Z,50.08
2019-05-14T21:17:19.074Z,49.93
2019-05-14T21:19:45.856Z,49.70
2019-05-14T21:22:13.012Z,50.02
2019-05-14T21:24:39.758Z,49.76
2019-05-14T21:27:09.315Z,49.43
2019-05-14T21:29:38.291Z,48.95
2019-05-14T21:32:04.579Z,48.12
2019-05-14T21:34:34.087Z,48.61
2019-05-14T21:37:01.021Z,48.09
2019-05-14T21:39:28.037Z,50.75
2019-05-14T21:41:54.723Z,50.75
2019-05-14T21:44:21.345Z,50.04
2019-05-14T21:46:48.325Z,50.73
2019-05-14T21:49:15.334Z,52.25
2019-05-14T21:51:42.082Z,53.00
2019-05-14T21:54:09.460Z,53.55
2019-05-14T21:56:38.677Z,53.81
2019-05-14T21:59:05.557Z,52.08
2019-05-14T22:01:32.615Z,52.97
2019-05-14T22:03:59.583Z,53.20
2019-05-14T22:06:29.055Z,52.57
2019-05-14T22:08:55.826Z,52.39
2019-05-14T22:11:22.828Z,53.22
2019-05-14T22:13:49.994Z,55.16
2019-05-14T22:16:18.878Z,55.85
2019-05-14T22:18:45.133Z,56.34
2019-05-14T22:21:11.818Z,56.07
2019-05-14T22:23:38.959Z,55.94
2019-05-14T22:26:07.260Z,57.61
2019-05-14T22:28:34.060Z,57.43
2019-05-14T22:31:00.677Z,58.47
2019-05-14T22:33:28.459Z,60.24
2019-05-14T22:35:55.259Z,60.12
2019-05-14T22:38:21.932Z,59.81
2019-05-14T22:40:49.064Z,58.22
2019-05-14T22:43:18.291Z,57.45
2019-05-14T22:45:45.092Z,55.82
2019-05-14T22:48:12.102Z,55.51
2019-05-14T22:50:41.462Z,55.30
2019-05-14T22:53:09.237Z,55.60
2019-05-14T22:55:38.107Z,55.89
2019-05-14T22:58:04.483Z,57.22
2019-05-14T23:00:32.358Z,56.85
2019-05-14T23:02:59.153Z,58.85
2019-05-14T23:05:26.047Z,56.94
2019-05-14T23:07:52.935Z,59.15
2019-05-14T23:10:19.780Z,59.67
2019-05-14T23:12:48.722Z,61.64
2019-05-14T23:15:15.126Z,62.28
2019-05-14T23:17:41.723Z,62.14
2019-05-14T23:20:09.272Z,58.69
2019-05-14T23:22:38.862Z,59.05
2019-05-14T23:25:05.068Z,58.81
2019-05-14T23:27:31.765Z,59.33
2019-05-14T23:29:58.766Z,58.72
2019-05-14T23:32:25.438Z,58.41
2019-05-14T23:34:52.062Z,57.95
2019-05-14T23:37:18.912Z,58.23
2019-05-14T23:39:45.753Z,58.78
2019-05-14T23:42:12.407Z,62.13
2019-05-14T23:44:39.062Z,63.54
2019-05-14T23:47:05.673Z,63.50
2019-05-14T23:49:33.323Z,66.22
2019-05-14T23:52:00.235Z,64.04
2019-05-14T23:54:29.218Z,62.08
2019-05-14T23:56:58.279Z,64.13
2019-05-14T23:59:24.480Z,62.01
